Huntington, Utah
Current Conditions -  °F | °C
As of 4:53 PM on Sunday 21 Dec 2014 (Local Time) from KPUC Reporting Station
Overcast Overcast  
Wind Chill: 29°   Ceiling: 4600
Heat Index: 34°   Visibility: 10mi
Dew Point: 29°   Wind: 6mph
Humidity: 82%   Direction: 90°E
Pressure: 29.92"   Gusts: NA
Location:  39.33°N, 110.96°W
Report Text: KPUC 212353Z AUTO 09005KT 10SM BKN046 OVC060 01/M02 A2992 RMK AO2 SLP159 60000 T00111017 10017 20006 55009
Loading
Personal Weather Stations






























Interactive Weather Map New forecast layout! Learn more

10-Day Weather Forecast

Advertisements
Track Severe Weather on mobile